Time;durP1;ratioP1;P1;durP2;ratioP2;P2;SDS_P1;SDS_P2;PMS_P1;PMS_P2;Temp;Humidity;BMP_temperature;BMP_pressure;BME280_temperature;BME280_humidity;BME280_pressure;Samples;Min_cycle;Max_cycle;Signal;HPM_P1;HPM_P2
2023/09/03 00:01:26;;;;;;;1.83;1.73;;;15.60;99.90;;;;;;5052238;28;21040;-80
2023/09/03 00:03:53;;;;;;;0.50;0.40;;;15.60;99.90;;;;;;5052244;28;20450;-79
2023/09/03 00:06:20;;;;;;;0.50;0.33;;;15.60;99.90;;;;;;5052480;28;20530;-81
2023/09/03 00:08:48;;;;;;;0.50;0.40;;;15.50;99.90;;;;;;5052211;28;20442;-80
2023/09/03 00:11:15;;;;;;;0.50;0.40;;;15.50;99.90;;;;;;5051623;28;20541;-79
2023/09/03 00:13:43;;;;;;;0.50;0.40;;;15.50;99.90;;;;;;5052188;28;20525;-80
2023/09/03 00:16:10;;;;;;;0.50;0.40;;;15.40;99.90;;;;;;5051732;28;20446;-80
2023/09/03 00:18:37;;;;;;;0.50;0.40;;;15.30;99.90;;;;;;5052149;28;20575;-80
2023/09/03 00:21:05;;;;;;;0.50;0.40;;;15.40;99.90;;;;;;5051418;28;20546;-80
2023/09/03 00:23:33;;;;;;;0.50;0.40;;;15.40;99.90;;;;;;5051759;28;20539;-80
2023/09/03 00:26:01;;;;;;;0.50;0.40;;;15.30;99.90;;;;;;5051889;28;20443;-78
2023/09/03 00:28:28;;;;;;;0.50;0.30;;;15.30;99.90;;;;;;5051908;28;20449;-77
2023/09/03 00:31:04;;;;;;;0.63;0.63;;;15.30;99.90;;;;;;5054530;28;20467;-81
2023/09/03 00:33:31;;;;;;;0.50;0.33;;;15.30;99.90;;;;;;5055351;28;20514;-81
2023/09/03 00:35:58;;;;;;;0.50;0.37;;;15.30;99.90;;;;;;5055239;28;20521;-80
2023/09/03 00:38:25;;;;;;;0.50;0.40;;;15.30;99.90;;;;;;5055680;28;20485;-81
2023/09/03 00:40:50;;;;;;;0.50;0.40;;;15.30;99.90;;;;;;5054949;28;20464;-80
2023/09/03 00:43:18;;;;;;;0.50;0.40;;;15.30;99.90;;;;;;5054897;28;20522;-81
2023/09/03 00:45:46;;;;;;;0.50;0.37;;;15.30;99.90;;;;;;5055775;28;20199;-80
2023/09/03 00:48:17;;;;;;;0.50;0.40;;;15.30;99.90;;;;;;5054806;28;20439;-80
2023/09/03 00:50:46;;;;;;;0.50;0.40;;;15.20;99.90;;;;;;5055410;28;20506;-80
2023/09/03 00:53:16;;;;;;;0.50;0.40;;;15.20;99.90;;;;;;5055528;28;20534;-80
2023/09/03 00:55:43;;;;;;;0.50;0.40;;;15.30;99.90;;;;;;5055173;28;20452;-81
2023/09/03 00:58:11;;;;;;;0.50;0.40;;;15.20;99.90;;;;;;5054709;28;20569;-79
2023/09/03 01:00:39;;;;;;;0.50;0.33;;;15.20;99.90;;;;;;5054511;28;20502;-80
2023/09/03 01:03:06;;;;;;;0.50;0.40;;;15.30;99.90;;;;;;5054223;28;20993;-81
2023/09/03 01:05:34;;;;;;;0.50;0.40;;;15.30;99.90;;;;;;5054914;28;20526;-81
2023/09/03 01:08:02;;;;;;;0.50;0.40;;;15.20;99.90;;;;;;5054680;28;20953;-79
2023/09/03 01:10:39;;;;;;;0.50;0.40;;;15.20;99.90;;;;;;5055058;28;20448;-80
2023/09/03 01:13:16;;;;;;;0.50;0.40;;;15.20;99.90;;;;;;5054622;28;20476;-82
2023/09/03 01:15:48;;;;;;;1.33;1.33;;;15.20;99.90;;;;;;5054803;28;20548;-83
2023/09/03 01:18:19;;;;;;;0.50;0.40;;;15.20;99.90;;;;;;5054664;28;20566;-80
2023/09/03 01:21:15;;;;;;;0.50;0.30;;;15.20;99.90;;;;;;5054907;28;20839;-83
2023/09/03 01:23:50;;;;;;;0.50;0.40;;;15.30;99.90;;;;;;5054924;28;20861;-82
2023/09/03 01:26:34;;;;;;;0.50;0.33;;;15.20;99.90;;;;;;5054758;28;20474;-82
2023/09/03 01:29:02;;;;;;;0.50;0.30;;;15.20;99.90;;;;;;5054409;28;20443;-80
2023/09/03 01:31:31;;;;;;;0.50;0.37;;;15.20;99.90;;;;;;5055070;28;20564;-82
2023/09/03 01:34:02;;;;;;;0.50;0.30;;;15.20;99.90;;;;;;5054925;28;20896;-82
2023/09/03 01:36:29;;;;;;;0.50;0.30;;;15.30;99.90;;;;;;5054731;28;20944;-82
2023/09/03 01:38:59;;;;;;;0.50;0.37;;;15.20;99.90;;;;;;5055125;28;20478;-81
2023/09/03 01:41:26;;;;;;;1.37;1.27;;;15.20;99.90;;;;;;5046899;28;20546;-82
2023/09/03 01:43:52;;;;;;;0.50;0.30;;;15.10;99.90;;;;;;5054994;28;20809;-82
2023/09/03 01:46:26;;;;;;;0.50;0.40;;;15.10;99.90;;;;;;5054660;28;20442;-82
2023/09/03 01:49:03;;;;;;;0.50;0.40;;;15.00;99.90;;;;;;5055377;28;20438;-82
2023/09/03 01:51:37;;;;;;;0.50;0.30;;;15.00;99.90;;;;;;5047336;28;20450;-83
2023/09/03 01:54:13;;;;;;;0.50;0.50;;;15.00;99.90;;;;;;5055334;28;20531;-82
2023/09/03 01:56:47;;;;;;;0.50;0.30;;;15.00;99.90;;;;;;5055436;28;20879;-81
2023/09/03 01:59:19;;;;;;;0.50;0.40;;;15.00;99.90;;;;;;5054344;28;20474;-81
2023/09/03 02:01:50;;;;;;;0.70;0.57;;;15.00;99.90;;;;;;5055250;28;20521;-82
2023/09/03 02:04:17;;;;;;;0.50;0.30;;;15.00;99.90;;;;;;5054953;28;20525;-82
2023/09/03 02:06:46;;;;;;;0.50;0.30;;;15.00;99.90;;;;;;5055010;28;20534;-82
2023/09/03 02:09:14;;;;;;;0.50;0.40;;;14.90;99.90;;;;;;5055248;28;20439;-82
2023/09/03 02:11:41;;;;;;;0.50;0.40;;;14.90;99.90;;;;;;5055832;28;20469;-81
2023/09/03 02:14:08;;;;;;;0.50;0.40;;;14.90;99.90;;;;;;5058533;28;20537;-81
2023/09/03 02:16:35;;;;;;;0.57;0.57;;;14.90;99.90;;;;;;5059622;28;20442;-81
2023/09/03 02:19:03;;;;;;;0.50;0.40;;;14.90;99.90;;;;;;5059786;28;20723;-81
2023/09/03 02:21:30;;;;;;;0.50;0.40;;;14.90;99.90;;;;;;5051981;28;20538;-82
2023/09/03 02:23:57;;;;;;;0.50;0.40;;;14.80;99.90;;;;;;5059182;28;20960;-81
2023/09/03 02:26:24;;;;;;;0.50;0.40;;;14.80;99.90;;;;;;5058960;28;20437;-81
2023/09/03 02:28:50;;;;;;;0.50;0.40;;;14.70;99.90;;;;;;5059401;28;20464;-81
2023/09/03 02:31:17;;;;;;;0.50;0.40;;;14.70;99.90;;;;;;5058652;28;20511;-82
2023/09/03 02:33:44;;;;;;;0.50;0.40;;;14.70;99.90;;;;;;5058813;28;20471;-81
2023/09/03 02:36:12;;;;;;;0.50;0.30;;;14.70;99.90;;;;;;5058787;28;20443;-81
2023/09/03 02:38:41;;;;;;;0.50;0.40;;;14.70;99.90;;;;;;5058493;28;20555;-83
2023/09/03 02:41:08;;;;;;;0.50;0.40;;;14.70;99.90;;;;;;5057483;28;21011;-81
2023/09/03 02:43:34;;;;;;;0.50;0.40;;;14.60;99.90;;;;;;5058257;28;20439;-81
2023/09/03 02:46:01;;;;;;;0.50;0.40;;;14.60;99.90;;;;;;5058155;28;20450;-82
2023/09/03 02:48:28;;;;;;;0.50;0.40;;;14.60;99.90;;;;;;5057451;28;20435;-82
2023/09/03 02:50:55;;;;;;;0.50;0.30;;;14.60;99.90;;;;;;5057923;28;20494;-82
2023/09/03 02:53:23;;;;;;;0.50;0.33;;;14.50;99.90;;;;;;5057883;28;20449;-80
2023/09/03 02:55:50;;;;;;;0.50;0.40;;;14.50;99.90;;;;;;5057865;28;20455;-82
2023/09/03 02:58:17;;;;;;;0.50;0.40;;;14.50;99.90;;;;;;5057849;28;20907;-82
2023/09/03 03:00:43;;;;;;;0.50;0.40;;;14.50;99.90;;;;;;5057280;28;20463;-82
2023/09/03 03:03:10;;;;;;;0.50;0.40;;;14.40;99.90;;;;;;5057741;28;20525;-82
2023/09/03 03:05:37;;;;;;;0.50;0.40;;;14.40;99.90;;;;;;5057725;28;20434;-82
2023/09/03 03:08:04;;;;;;;0.50;0.40;;;14.40;99.90;;;;;;5057861;28;20520;-82
2023/09/03 03:10:32;;;;;;;0.50;0.40;;;14.40;99.90;;;;;;5058378;28;20858;-82
2023/09/03 03:12:59;;;;;;;0.60;0.60;;;14.40;99.90;;;;;;5057685;28;20449;-82
2023/09/03 03:15:26;;;;;;;0.50;0.40;;;14.40;99.90;;;;;;5056561;28;21022;-80
2023/09/03 03:17:53;;;;;;;0.50;0.40;;;14.40;99.90;;;;;;5057362;28;20482;-82
2023/09/03 03:20:22;;;;;;;0.50;0.40;;;14.40;99.90;;;;;;5057093;28;20506;-81
2023/09/03 03:22:49;;;;;;;0.50;0.40;;;14.40;99.90;;;;;;5057399;28;20484;-82
2023/09/03 03:25:16;;;;;;;0.50;0.40;;;14.40;99.90;;;;;;5056508;28;20872;-82
2023/09/03 03:27:44;;;;;;;0.50;0.40;;;14.30;99.90;;;;;;5057535;28;20543;-82
2023/09/03 03:30:11;;;;;;;0.50;0.40;;;14.30;99.90;;;;;;5057321;28;20445;-81
2023/09/03 03:32:38;;;;;;;0.50;0.40;;;14.30;99.90;;;;;;5057797;28;20885;-82
2023/09/03 03:35:05;;;;;;;0.50;0.40;;;14.20;99.90;;;;;;5057637;28;20446;-81
2023/09/03 03:37:32;;;;;;;15.77;11.97;;;14.30;99.90;;;;;;5057788;28;20509;-81
2023/09/03 03:39:59;;;;;;;0.50;0.40;;;14.20;99.90;;;;;;5057148;28;20529;-82
2023/09/03 03:42:26;;;;;;;0.50;0.40;;;14.20;99.90;;;;;;5056900;28;21154;-82
2023/09/03 03:44:54;;;;;;;0.50;0.40;;;14.20;99.90;;;;;;5057399;28;20448;-81
2023/09/03 03:47:21;;;;;;;0.50;0.40;;;14.20;99.90;;;;;;5057029;28;20436;-82
2023/09/03 03:49:48;;;;;;;0.50;0.40;;;14.20;99.90;;;;;;5057242;28;20436;-82
2023/09/03 03:52:14;;;;;;;0.50;0.40;;;14.30;99.90;;;;;;5057573;28;20568;-79
2023/09/03 03:54:41;;;;;;;0.50;0.40;;;14.30;99.90;;;;;;5057465;28;20880;-82
2023/09/03 03:57:08;;;;;;;0.50;0.40;;;14.40;99.90;;;;;;5057110;28;20436;-82
2023/09/03 03:59:36;;;;;;;0.50;0.40;;;14.30;99.90;;;;;;5055992;28;20893;-82
2023/09/03 04:02:04;;;;;;;0.50;0.40;;;14.40;99.90;;;;;;5056504;28;21033;-82
2023/09/03 04:04:31;;;;;;;0.50;0.40;;;14.40;99.90;;;;;;5057121;28;20527;-83
2023/09/03 04:06:58;;;;;;;0.50;0.40;;;14.30;99.90;;;;;;5057284;28;20530;-82
2023/09/03 04:09:25;;;;;;;0.50;0.40;;;14.30;99.90;;;;;;5056960;28;20817;-82
2023/09/03 04:11:51;;;;;;;0.50;0.40;;;14.30;99.90;;;;;;5057811;28;20538;-82
2023/09/03 04:14:18;;;;;;;0.50;0.30;;;14.30;99.90;;;;;;5057031;28;20441;-82
2023/09/03 04:16:46;;;;;;;0.50;0.40;;;14.30;99.90;;;;;;5056766;28;20443;-82
2023/09/03 04:19:14;;;;;;;0.50;0.40;;;14.20;99.90;;;;;;5056477;28;20479;-77
2023/09/03 04:21:41;;;;;;;0.50;0.40;;;14.20;99.90;;;;;;5049130;28;20463;-81
2023/09/03 04:24:09;;;;;;;0.50;0.37;;;14.10;99.90;;;;;;5056968;28;20447;-81
2023/09/03 04:26:36;;;;;;;0.50;0.40;;;14.10;99.90;;;;;;5056383;28;20504;-81
2023/09/03 04:29:05;;;;;;;0.50;0.40;;;14.00;99.90;;;;;;5056527;28;20442;-80
2023/09/03 04:31:35;;;;;;;0.50;0.40;;;14.00;99.90;;;;;;5056491;28;20486;-80
2023/09/03 04:34:01;;;;;;;0.50;0.30;;;13.90;99.90;;;;;;5057143;28;20448;-80
2023/09/03 04:36:30;;;;;;;0.50;0.40;;;13.90;99.90;;;;;;5056018;28;20446;-79
2023/09/03 04:38:56;;;;;;;0.50;0.40;;;13.90;99.90;;;;;;5057517;28;20478;-81
2023/09/03 04:41:23;;;;;;;0.50;0.40;;;13.80;99.90;;;;;;5057196;28;20459;-81
2023/09/03 04:43:50;;;;;;;0.50;0.40;;;13.80;99.90;;;;;;5057091;28;20446;-81
2023/09/03 04:46:17;;;;;;;0.50;0.40;;;13.80;99.90;;;;;;5056310;28;20535;-78
2023/09/03 04:48:44;;;;;;;0.50;0.40;;;13.80;99.90;;;;;;5057208;28;20437;-81
2023/09/03 04:51:10;;;;;;;0.50;0.37;;;13.80;99.90;;;;;;5056846;28;20541;-80
2023/09/03 04:53:38;;;;;;;0.50;0.40;;;13.80;99.90;;;;;;5056527;28;20459;-80
2023/09/03 04:56:12;;;;;;;0.50;0.40;;;13.80;99.90;;;;;;5057551;28;20790;-80
2023/09/03 04:58:38;;;;;;;0.50;0.40;;;13.80;99.90;;;;;;5056732;28;20475;-81
2023/09/03 05:01:13;;;;;;;0.50;0.40;;;13.80;99.90;;;;;;5057369;28;20914;-81
2023/09/03 05:03:40;;;;;;;0.50;0.40;;;13.80;99.90;;;;;;5057314;28;20466;-81
2023/09/03 05:06:07;;;;;;;0.50;0.40;;;13.80;99.90;;;;;;5057025;28;20542;-81
2023/09/03 05:08:34;;;;;;;0.50;0.40;;;13.90;99.90;;;;;;5057301;28;20497;-80
2023/09/03 05:11:11;;;;;;;0.50;0.40;;;13.90;99.90;;;;;;5057209;28;20467;-81
2023/09/03 05:13:38;;;;;;;0.50;0.40;;;13.90;99.90;;;;;;5056988;28;20931;-81
2023/09/03 05:16:05;;;;;;;0.50;0.40;;;14.00;99.90;;;;;;5057219;28;20518;-81
2023/09/03 05:18:33;;;;;;;0.50;0.40;;;14.00;99.90;;;;;;5056575;28;20488;-79
2023/09/03 05:20:59;;;;;;;0.50;0.40;;;14.00;99.90;;;;;;5056977;28;20538;-81
2023/09/03 05:23:26;;;;;;;0.50;0.40;;;14.00;99.90;;;;;;5057609;28;20468;-80
2023/09/03 05:25:53;;;;;;;0.50;0.40;;;14.00;99.90;;;;;;5056812;28;20935;-81
2023/09/03 05:28:21;;;;;;;0.50;0.30;;;14.10;99.90;;;;;;5056988;28;20515;-81
2023/09/03 05:30:49;;;;;;;0.67;0.67;;;14.10;99.90;;;;;;5048747;28;20463;-81
2023/09/03 05:33:16;;;;;;;0.50;0.40;;;14.10;99.90;;;;;;5057426;28;20450;-80
2023/09/03 05:35:43;;;;;;;0.50;0.40;;;14.10;99.90;;;;;;5056711;28;20449;-81
2023/09/03 05:38:10;;;;;;;0.50;0.40;;;14.10;99.90;;;;;;5057179;28;20539;-80
2023/09/03 05:40:37;;;;;;;0.50;0.40;;;14.10;99.90;;;;;;5056636;28;20934;-81
2023/09/03 05:43:04;;;;;;;0.50;0.40;;;14.10;99.90;;;;;;5057236;28;20530;-80
2023/09/03 05:45:32;;;;;;;0.50;0.40;;;14.10;99.90;;;;;;5057016;28;20513;-81
2023/09/03 05:47:59;;;;;;;0.50;0.40;;;14.20;99.90;;;;;;5059225;28;20449;-80
2023/09/03 05:50:26;;;;;;;0.50;0.40;;;14.20;99.90;;;;;;5061491;28;20502;-80
2023/09/03 05:52:53;;;;;;;0.50;0.40;;;14.40;99.90;;;;;;5061610;28;20941;-81
2023/09/03 05:55:20;;;;;;;0.50;0.40;;;14.40;99.90;;;;;;5061426;28;20941;-80
2023/09/03 05:57:47;;;;;;;0.50;0.30;;;14.50;99.90;;;;;;5061357;28;20527;-81
2023/09/03 06:00:15;;;;;;;0.50;0.40;;;14.50;99.90;;;;;;5060483;28;20909;-81
2023/09/03 06:02:43;;;;;;;0.50;0.40;;;14.60;99.90;;;;;;5061454;28;20471;-81
2023/09/03 06:05:11;;;;;;;0.50;0.40;;;14.70;99.90;;;;;;5061549;28;20483;-80
2023/09/03 06:07:38;;;;;;;0.50;0.40;;;14.80;99.90;;;;;;5060970;28;20440;-81
2023/09/03 06:10:06;;;;;;;0.50;0.40;;;14.80;99.90;;;;;;5060544;28;20452;-80
2023/09/03 06:12:32;;;;;;;0.50;0.40;;;14.90;99.90;;;;;;5060339;28;20551;-80
2023/09/03 06:14:59;;;;;;;0.50;0.40;;;15.00;99.90;;;;;;5060181;28;20544;-80
2023/09/03 06:17:26;;;;;;;0.50;0.40;;;15.00;99.90;;;;;;5060691;28;20456;-81
2023/09/03 06:19:54;;;;;;;0.50;0.40;;;15.20;99.90;;;;;;5060624;28;20470;-80
2023/09/03 06:22:21;;;;;;;0.50;0.40;;;15.30;99.90;;;;;;5061163;28;20989;-80
2023/09/03 06:24:48;;;;;;;0.50;0.40;;;15.60;99.90;;;;;;5061874;28;20446;-80
2023/09/03 06:27:15;;;;;;;0.50;0.30;;;15.80;99.90;;;;;;5061266;28;20441;-81
2023/09/03 06:29:41;;;;;;;0.50;0.40;;;16.00;99.90;;;;;;5060389;28;21096;-81
2023/09/03 06:32:08;;;;;;;0.50;0.40;;;16.20;99.90;;;;;;5060451;28;20554;-80
2023/09/03 06:34:35;;;;;;;0.50;0.40;;;16.30;99.90;;;;;;5061746;28;20875;-81
2023/09/03 06:37:04;;;;;;;0.50;0.40;;;16.30;99.90;;;;;;5061017;28;20446;-81
2023/09/03 06:39:31;;;;;;;0.50;0.30;;;16.50;99.90;;;;;;5059896;28;20479;-81
2023/09/03 06:41:58;;;;;;;0.50;0.50;;;16.70;99.90;;;;;;5060665;28;20465;-81
2023/09/03 06:44:25;;;;;;;0.50;0.40;;;16.90;99.90;;;;;;5060377;28;20448;-81
2023/09/03 06:46:52;;;;;;;0.50;0.40;;;17.00;99.90;;;;;;5060142;28;20462;-80
2023/09/03 06:49:20;;;;;;;0.50;0.30;;;17.20;99.90;;;;;;5061155;28;20893;-80
2023/09/03 06:51:47;;;;;;;0.50;0.40;;;17.40;99.90;;;;;;5060715;28;20468;-80
2023/09/03 06:54:15;;;;;;;0.50;0.50;;;17.70;99.90;;;;;;5060745;28;20447;-80
2023/09/03 06:56:42;;;;;;;2.13;1.27;;;18.10;99.90;;;;;;5059933;28;20530;-80
2023/09/03 06:59:08;;;;;;;0.73;0.73;;;18.50;99.90;;;;;;5058920;28;20472;-80
2023/09/03 07:01:35;;;;;;;0.50;0.40;;;18.80;99.90;;;;;;5060586;28;20546;-80
2023/09/03 07:04:02;;;;;;;0.50;0.40;;;19.00;99.90;;;;;;5061284;28;20435;-80
2023/09/03 07:06:29;;;;;;;0.50;0.43;;;19.30;99.90;;;;;;5060709;28;20443;-79
2023/09/03 07:08:55;;;;;;;4.47;2.77;;;19.50;99.90;;;;;;5060026;28;20535;-80
2023/09/03 07:11:24;;;;;;;0.50;0.30;;;19.80;99.90;;;;;;5059442;28;20456;-80
2023/09/03 07:13:50;;;;;;;0.50;0.40;;;19.90;99.90;;;;;;5059720;28;20442;-80
2023/09/03 07:16:17;;;;;;;0.50;0.40;;;20.00;99.90;;;;;;5060488;28;20438;-81
2023/09/03 07:18:44;;;;;;;0.50;0.30;;;20.10;99.90;;;;;;5060528;28;20446;-81
2023/09/03 07:21:11;;;;;;;0.50;0.50;;;20.00;99.90;;;;;;5060026;28;20539;-81
2023/09/03 07:23:37;;;;;;;0.50;0.40;;;20.00;99.90;;;;;;5059285;28;20446;-80
2023/09/03 07:26:06;;;;;;;0.50;0.40;;;19.90;99.90;;;;;;5059329;28;20433;-81
2023/09/03 07:28:35;;;;;;;0.63;0.63;;;19.90;99.90;;;;;;5059048;28;20449;-79
2023/09/03 07:31:02;;;;;;;0.50;0.30;;;19.80;99.90;;;;;;5058840;28;20469;-81
2023/09/03 07:33:28;;;;;;;0.50;0.30;;;19.80;99.90;;;;;;5059191;28;20518;-81
2023/09/03 07:35:55;;;;;;;0.50;0.30;;;19.60;99.90;;;;;;5058529;28;20519;-81
2023/09/03 07:38:25;;;;;;;0.50;0.40;;;19.40;99.90;;;;;;5059431;28;20443;-81
2023/09/03 07:40:51;;;;;;;0.50;0.30;;;19.20;99.90;;;;;;5058563;28;21005;-81
2023/09/03 07:43:18;;;;;;;1.07;1.07;;;19.00;99.90;;;;;;5058598;28;20452;-81
2023/09/03 07:45:47;;;;;;;0.50;0.30;;;18.80;99.90;;;;;;5059269;28;20836;-81
2023/09/03 07:48:14;;;;;;;0.50;0.40;;;18.50;99.90;;;;;;5058242;28;20440;-80
2023/09/03 07:50:41;;;;;;;0.50;0.33;;;18.30;99.90;;;;;;5059351;28;20512;-81
2023/09/03 07:53:08;;;;;;;11.20;1.70;;;18.20;99.90;;;;;;5059205;28;20448;-80
2023/09/03 07:55:35;;;;;;;0.50;0.30;;;18.10;99.90;;;;;;5058731;28;20451;-80
2023/09/03 07:58:01;;;;;;;0.50;0.30;;;17.80;99.90;;;;;;5058952;28;20443;-80
2023/09/03 08:00:29;;;;;;;0.50;0.40;;;17.80;99.90;;;;;;5059082;28;20557;-81
2023/09/03 08:02:57;;;;;;;0.50;0.30;;;18.00;99.90;;;;;;5058788;28;20432;-82
2023/09/03 08:05:24;;;;;;;0.93;0.93;;;18.20;99.90;;;;;;5059146;28;20442;-80
2023/09/03 08:07:51;;;;;;;0.63;0.63;;;18.20;99.90;;;;;;5057975;28;20999;-81
2023/09/03 08:10:17;;;;;;;0.50;0.50;;;18.20;99.90;;;;;;5057805;28;20972;-80
2023/09/03 08:12:44;;;;;;;0.50;0.30;;;18.10;99.90;;;;;;5058319;28;20534;-80
2023/09/03 08:15:11;;;;;;;0.73;0.73;;;18.10;99.90;;;;;;5059958;28;20511;-81
2023/09/03 08:17:38;;;;;;;0.50;0.50;;;18.20;99.90;;;;;;5059911;28;20443;-81
2023/09/03 08:20:07;;;;;;;0.50;0.50;;;18.20;99.90;;;;;;5059101;28;20472;-81
2023/09/03 08:22:37;;;;;;;1.80;1.70;;;18.20;99.90;;;;;;5059408;28;20542;-81
2023/09/03 08:25:05;;;;;;;0.50;0.30;;;18.40;99.90;;;;;;5059311;28;20428;-80
2023/09/03 08:27:32;;;;;;;0.50;0.30;;;18.60;99.90;;;;;;5058358;28;20518;-80
2023/09/03 08:29:59;;;;;;;0.50;0.30;;;19.00;99.90;;;;;;5058502;28;20504;-80
2023/09/03 08:32:26;;;;;;;0.50;0.30;;;19.10;99.90;;;;;;5059134;28;20527;-81
2023/09/03 08:34:53;;;;;;;1.47;1.37;;;19.40;99.90;;;;;;5059457;28;20531;-81
2023/09/03 08:37:26;;;;;;;0.50;0.50;;;19.50;99.90;;;;;;5058982;28;20436;-81
2023/09/03 08:39:53;;;;;;;0.50;0.30;;;19.90;99.90;;;;;;5058879;28;20851;-81
2023/09/03 08:42:21;;;;;;;0.50;0.40;;;20.50;99.90;;;;;;5058616;28;20567;-81
2023/09/03 08:44:53;;;;;;;0.60;0.60;;;21.20;99.90;;;;;;5058605;28;20446;-81
2023/09/03 08:47:20;;;;;;;0.60;0.50;;;21.70;99.90;;;;;;5059640;28;20448;-81
2023/09/03 08:49:47;;;;;;;0.50;0.50;;;22.40;99.90;;;;;;5058547;28;20476;-81
2023/09/03 08:52:16;;;;;;;2.20;2.10;;;23.20;99.90;;;;;;5058779;28;20557;-81
2023/09/03 08:54:45;;;;;;;0.50;0.43;;;24.40;99.90;;;;;;5058009;28;20963;-81
2023/09/03 08:57:12;;;;;;;1.03;1.03;;;24.90;99.90;;;;;;5058448;28;20526;-81
2023/09/03 08:59:39;;;;;;;0.60;0.60;;;24.90;99.90;;;;;;5058416;28;20558;-81
2023/09/03 09:02:12;;;;;;;0.50;0.40;;;25.40;99.90;;;;;;5058143;28;20470;-81
2023/09/03 09:04:39;;;;;;;0.50;0.30;;;25.80;99.90;;;;;;5059303;28;20475;-81
2023/09/03 09:07:08;;;;;;;4.10;1.90;;;26.70;99.90;;;;;;5050503;28;20547;-81
2023/09/03 09:09:36;;;;;;;1.50;1.40;;;27.20;99.90;;;;;;5059025;28;20491;-81
2023/09/03 09:12:12;;;;;;;0.50;0.40;;;27.60;99.90;;;;;;5058754;28;20486;-81
2023/09/03 09:14:46;;;;;;;0.73;0.70;;;28.30;99.90;;;;;;5058761;28;20447;-82
2023/09/03 09:17:14;;;;;;;3.93;2.43;;;28.80;99.90;;;;;;5058480;28;20475;-81
2023/09/03 09:19:40;;;;;;;0.50;0.40;;;29.00;99.90;;;;;;5059068;28;20473;-81
2023/09/03 09:22:07;;;;;;;0.50;0.50;;;28.70;99.90;;;;;;5050483;28;20465;-82
2023/09/03 09:24:41;;;;;;;1.40;1.30;;;28.90;99.90;;;;;;5062328;28;21031;-82
2023/09/03 09:27:15;;;;;;;0.50;0.30;;;29.40;99.90;;;;;;5054408;28;20525;-81
2023/09/03 09:29:43;;;;;;;0.50;0.30;;;29.70;99.90;;;;;;5063297;28;20436;-81
2023/09/03 09:32:18;;;;;;;0.50;0.30;;;29.70;99.90;;;;;;5062500;28;20468;-81
2023/09/03 09:34:45;;;;;;;0.50;0.40;;;30.40;99.90;;;;;;5063238;28;20425;-82
2023/09/03 09:37:12;;;;;;;2.70;2.50;;;30.80;99.90;;;;;;5061926;28;20532;-81
2023/09/03 09:39:43;;;;;;;0.50;0.30;;;30.80;99.90;;;;;;5061746;28;20849;-81
2023/09/03 09:42:12;;;;;;;0.50;0.30;;;31.10;96.80;;;;;;5062314;28;20492;-82
2023/09/03 09:44:55;;;;;;;0.60;0.60;;;31.10;96.20;;;;;;5063624;28;20455;-81
2023/09/03 09:47:22;;;;;;;0.50;0.40;;;31.10;95.30;;;;;;5062717;28;20504;-80
2023/09/03 09:49:49;;;;;;;0.50;0.30;;;31.20;96.00;;;;;;5062571;28;20438;-82
2023/09/03 09:52:17;;;;;;;0.80;0.80;;;31.40;95.10;;;;;;5061918;28;20461;-82
2023/09/03 09:54:45;;;;;;;0.50;0.30;;;31.70;95.70;;;;;;5062406;28;20445;-81
2023/09/03 09:57:13;;;;;;;0.50;0.30;;;32.00;92.20;;;;;;5062668;28;20520;-82
2023/09/03 09:59:42;;;;;;;3.37;1.63;;;32.30;90.30;;;;;;5061780;28;20468;-81
2023/09/03 10:02:13;;;;;;;0.50;0.30;;;32.20;86.60;;;;;;5061664;28;20552;-82
2023/09/03 10:04:44;;;;;;;0.50;0.30;;;32.00;87.30;;;;;;5062122;28;20520;-82
2023/09/03 10:07:12;;;;;;;0.50;0.40;;;32.30;86.50;;;;;;5054077;28;20525;-81
2023/09/03 10:09:40;;;;;;;0.50;0.30;;;32.10;86.60;;;;;;5062866;28;20520;-82
2023/09/03 10:12:09;;;;;;;0.50;0.30;;;32.20;90.30;;;;;;5062745;28;20454;-82
2023/09/03 10:14:36;;;;;;;0.50;0.40;;;32.40;90.10;;;;;;5062184;28;20525;-82
2023/09/03 10:17:05;;;;;;;0.50;0.30;;;32.60;87.90;;;;;;5061880;28;20524;-82
2023/09/03 10:19:43;;;;;;;0.50;0.40;;;32.90;84.00;;;;;;5061241;28;20468;-82
2023/09/03 10:22:13;;;;;;;0.57;0.50;;;32.70;86.20;;;;;;5061821;28;20521;-81
2023/09/03 10:24:42;;;;;;;0.50;0.30;;;32.60;85.80;;;;;;5062142;28;20434;-82
2023/09/03 10:27:13;;;;;;;0.50;0.30;;;32.30;81.10;;;;;;5062126;28;20534;-82
2023/09/03 10:29:42;;;;;;;2.60;2.40;;;32.40;84.70;;;;;;5061388;28;20532;-81
2023/09/03 10:32:12;;;;;;;0.60;0.40;;;32.50;85.30;;;;;;5061526;28;20545;-82
2023/09/03 10:34:40;;;;;;;0.40;0.30;;;32.90;82.40;;;;;;5061887;28;20525;-82
2023/09/03 10:37:08;;;;;;;0.50;0.30;;;33.10;81.70;;;;;;5061277;28;20509;-82
2023/09/03 10:39:35;;;;;;;0.50;0.40;;;33.00;80.40;;;;;;5060730;28;20469;-80
2023/09/03 10:42:35;;;;;;;0.47;0.30;;;33.20;76.50;;;;;;5061312;28;20516;-82
2023/09/03 10:45:02;;;;;;;0.43;0.30;;;33.30;74.60;;;;;;5000233;28;20519;-81
2023/09/03 10:47:30;;;;;;;0.50;0.30;;;33.10;76.90;;;;;;4999799;28;20452;-81
2023/09/03 10:49:57;;;;;;;0.60;0.40;;;33.00;78.50;;;;;;4999234;28;20809;-81
2023/09/03 10:52:40;;;;;;;1.33;1.23;;;32.80;71.30;;;;;;4999667;28;20535;-79
2023/09/03 10:55:19;;;;;;;0.40;0.30;;;32.30;77.30;;;;;;4998955;28;20479;-81
2023/09/03 10:57:46;;;;;;;0.50;0.30;;;32.40;78.00;;;;;;4998969;28;20467;-82
2023/09/03 11:00:17;;;;;;;0.50;0.30;;;32.50;76.10;;;;;;4998491;28;20579;-82
2023/09/03 11:02:45;;;;;;;0.40;0.30;;;32.90;68.90;;;;;;4999216;28;20560;-82
2023/09/03 11:05:19;;;;;;;0.50;0.30;;;32.80;73.70;;;;;;4998925;28;20447;-82
2023/09/03 11:07:46;;;;;;;0.47;0.30;;;33.10;74.50;;;;;;4999955;28;20800;-82
2023/09/03 11:10:38;;;;;;;0.53;0.53;;;33.00;67.30;;;;;;4998453;28;20527;-82
2023/09/03 11:13:09;;;;;;;0.50;0.30;;;32.90;63.80;;;;;;4999224;28;20432;-82
2023/09/03 11:15:36;;;;;;;0.83;0.83;;;32.50;62.30;;;;;;5020536;28;21002;-82
2023/09/03 11:18:06;;;;;;;0.50;0.30;;;32.00;63.50;;;;;;5060585;28;20472;-82
2023/09/03 11:20:35;;;;;;;0.60;0.60;;;31.70;68.80;;;;;;5060645;28;20484;-81
2023/09/03 11:23:03;;;;;;;0.50;0.30;;;31.60;69.10;;;;;;5060513;28;20476;-81
2023/09/03 11:25:34;;;;;;;0.50;0.30;;;31.30;71.00;;;;;;5059945;28;20890;-80
2023/09/03 11:28:01;;;;;;;0.50;0.30;;;31.40;72.70;;;;;;5059356;28;20499;-81
2023/09/03 11:30:29;;;;;;;0.50;0.30;;;31.70;70.80;;;;;;5060186;28;20481;-82
2023/09/03 11:32:56;;;;;;;0.50;0.30;;;31.40;72.50;;;;;;5059931;28;20441;-81
2023/09/03 11:35:25;;;;;;;0.50;0.30;;;31.40;72.60;;;;;;5059279;28;20473;-81
2023/09/03 11:37:54;;;;;;;0.50;0.40;;;31.50;67.00;;;;;;5059868;28;20467;-81
2023/09/03 11:40:25;;;;;;;0.40;0.30;;;31.50;63.70;;;;;;5058664;28;21016;-81
2023/09/03 11:42:52;;;;;;;0.43;0.30;;;31.10;67.30;;;;;;5060254;28;20509;-81
2023/09/03 11:45:19;;;;;;;0.50;0.30;;;31.10;69.70;;;;;;5059814;28;20529;-82
2023/09/03 11:47:48;;;;;;;0.40;0.30;;;31.40;70.70;;;;;;5060434;28;20524;-81
2023/09/03 11:50:16;;;;;;;0.50;0.30;;;31.30;73.90;;;;;;5059003;28;20532;-81
2023/09/03 11:52:49;;;;;;;0.50;0.30;;;31.00;66.90;;;;;;5059400;28;20454;-81
2023/09/03 11:55:16;;;;;;;0.50;0.30;;;30.60;66.40;;;;;;5059009;28;20512;-82
2023/09/03 11:57:44;;;;;;;0.50;0.40;;;30.10;69.10;;;;;;5058660;28;20445;-81
2023/09/03 12:00:13;;;;;;;0.50;0.30;;;29.70;70.60;;;;;;5058566;28;20460;-81
2023/09/03 12:02:40;;;;;;;0.50;0.30;;;29.40;68.80;;;;;;5058918;28;20457;-81
2023/09/03 12:05:09;;;;;;;0.50;0.30;;;29.20;71.30;;;;;;5058909;28;20441;-82
2023/09/03 12:07:35;;;;;;;0.50;0.30;;;29.00;73.60;;;;;;5058710;28;20476;-80
2023/09/03 12:10:04;;;;;;;0.50;0.30;;;28.90;72.60;;;;;;5058573;28;20529;-81
2023/09/03 12:12:31;;;;;;;0.50;0.30;;;29.10;74.10;;;;;;5058275;28;20465;-81
2023/09/03 12:14:58;;;;;;;0.50;0.30;;;29.00;75.00;;;;;;5059292;28;20483;-81
2023/09/03 12:17:25;;;;;;;0.50;0.50;;;28.70;76.50;;;;;;5058261;28;20520;-81
2023/09/03 12:19:52;;;;;;;0.50;0.30;;;28.40;79.40;;;;;;5058086;28;20476;-81
2023/09/03 12:22:20;;;;;;;0.50;0.30;;;28.50;81.90;;;;;;5058091;28;20484;-81
2023/09/03 12:24:47;;;;;;;0.50;0.30;;;28.90;82.20;;;;;;5058643;28;20436;-81
2023/09/03 12:27:16;;;;;;;0.50;0.30;;;29.00;76.20;;;;;;5058689;28;20821;-82
2023/09/03 12:29:43;;;;;;;0.50;0.40;;;29.00;75.60;;;;;;5058362;28;20536;-81
2023/09/03 12:32:16;;;;;;;0.60;0.60;;;28.80;75.90;;;;;;5057895;28;20472;-81
2023/09/03 12:34:48;;;;;;;0.50;0.30;;;28.80;79.60;;;;;;5058126;28;20555;-81
2023/09/03 12:37:16;;;;;;;0.50;0.40;;;28.60;77.60;;;;;;5057730;28;20513;-81
2023/09/03 12:39:42;;;;;;;0.50;0.30;;;28.50;80.60;;;;;;5057485;28;20440;-81
2023/09/03 12:42:11;;;;;;;0.50;0.30;;;28.50;83.10;;;;;;5057149;28;20491;-81
2023/09/03 12:44:42;;;;;;;0.50;0.30;;;29.00;80.90;;;;;;5057359;28;20524;-81
2023/09/03 12:47:09;;;;;;;0.50;0.40;;;29.50;81.10;;;;;;5057438;28;20505;-82
2023/09/03 12:49:35;;;;;;;0.50;0.30;;;29.90;73.40;;;;;;5058385;28;20429;-79
2023/09/03 12:52:02;;;;;;;0.50;0.30;;;30.40;73.30;;;;;;5058174;28;20453;-81